createdAt,value
2022-08-23T00:02:23.878Z,99.90
2022-08-23T00:05:07.866Z,99.90
2022-08-23T00:07:39.217Z,99.90
2022-08-23T00:10:08.867Z,99.90
2022-08-23T00:12:36.126Z,99.90
2022-08-23T00:15:02.965Z,99.90
2022-08-23T00:17:33.564Z,99.90
2022-08-23T00:20:06.666Z,99.90
2022-08-23T00:22:33.528Z,99.90
2022-08-23T00:25:00.436Z,99.90
2022-08-23T00:27:27.567Z,99.90
2022-08-23T00:29:55.749Z,99.90
2022-08-23T00:32:26.491Z,99.90
2022-08-23T00:34:53.459Z,99.90
2022-08-23T00:37:21.353Z,99.90
2022-08-23T00:39:48.069Z,99.90
2022-08-23T00:42:48.217Z,99.90
2022-08-23T00:45:36.959Z,99.90
2022-08-23T00:48:05.777Z,99.90
2022-08-23T00:50:46.158Z,99.90
2022-08-23T00:53:17.271Z,99.90
2022-08-23T00:55:46.585Z,99.90
2022-08-23T00:58:16.188Z,99.90
2022-08-23T01:00:42.904Z,99.90
2022-08-23T01:03:12.586Z,99.90
2022-08-23T01:06:16.970Z,99.90
2022-08-23T01:08:49.702Z,99.90
2022-08-23T01:11:24.179Z,99.90
2022-08-23T01:13:56.696Z,99.90
2022-08-23T01:16:33.135Z,99.90
2022-08-23T01:19:03.767Z,99.90
2022-08-23T01:21:38.459Z,99.90
2022-08-23T01:24:08.291Z,99.90
2022-08-23T01:26:35.337Z,99.90
2022-08-23T01:29:06.233Z,99.90
2022-08-23T01:31:34.347Z,99.90
2022-08-23T01:34:06.896Z,99.90
2022-08-23T01:36:34.213Z,99.90
2022-08-23T01:39:00.995Z,99.90
2022-08-23T01:41:27.729Z,99.90
2022-08-23T01:43:54.389Z,99.90
2022-08-23T01:46:22.886Z,99.90
2022-08-23T01:48:51.267Z,99.90
2022-08-23T01:51:19.772Z,99.90
2022-08-23T01:53:46.700Z,99.90
2022-08-23T01:56:15.031Z,99.90
2022-08-23T01:58:41.719Z,99.90
2022-08-23T02:01:08.440Z,99.90
2022-08-23T02:03:37.159Z,99.90
2022-08-23T02:06:04.924Z,99.90
2022-08-23T02:08:50.387Z,99.90
2022-08-23T02:11:22.167Z,99.90
2022-08-23T02:13:50.776Z,99.90
2022-08-23T02:16:28.233Z,99.90
2022-08-23T02:18:56.025Z,99.90
2022-08-23T02:21:22.800Z,99.90
2022-08-23T02:23:51.535Z,99.90
2022-08-23T02:26:19.192Z,99.90
2022-08-23T02:28:46.603Z,99.90
2022-08-23T02:31:14.260Z,99.90
2022-08-23T02:36:26.009Z,99.90
2022-08-23T02:38:54.564Z,99.90
2022-08-23T02:41:22.424Z,99.90
2022-08-23T02:43:52.978Z,99.90
2022-08-23T02:46:21.392Z,99.90
2022-08-23T02:48:48.431Z,99.90
2022-08-23T02:51:17.714Z,99.90
2022-08-23T02:53:45.101Z,99.90
2022-08-23T02:56:21.794Z,99.90
2022-08-23T02:58:54.587Z,99.90
2022-08-23T03:01:32.290Z,99.90
2022-08-23T03:04:00.515Z,99.90
2022-08-23T03:06:28.112Z,99.90
2022-08-23T03:08:56.670Z,99.90
2022-08-23T03:11:25.087Z,99.90
2022-08-23T03:13:53.983Z,99.90
2022-08-23T03:16:21.188Z,99.90
2022-08-23T03:18:48.975Z,99.90
2022-08-23T03:21:16.929Z,99.90
2022-08-23T03:23:44.042Z,99.90
2022-08-23T03:26:12.472Z,99.90
2022-08-23T03:28:41.494Z,99.90
2022-08-23T03:31:09.821Z,99.90
2022-08-23T03:33:37.230Z,99.90
2022-08-23T03:36:06.762Z,99.90
2022-08-23T03:38:34.840Z,99.90
2022-08-23T03:41:01.827Z,99.90
2022-08-23T03:43:28.823Z,99.90
2022-08-23T03:45:55.924Z,99.90
2022-08-23T03:48:22.721Z,99.90
2022-08-23T03:50:49.408Z,99.90
2022-08-23T03:53:16.225Z,99.90
2022-08-23T03:55:43.708Z,99.90
2022-08-23T03:58:11.563Z,99.90
2022-08-23T04:00:39.071Z,99.90
2022-08-23T04:03:05.871Z,99.90
2022-08-23T04:05:32.743Z,99.90
2022-08-23T04:08:00.423Z,99.90
2022-08-23T04:10:27.178Z,99.90
2022-08-23T04:12:54.792Z,99.90
2022-08-23T04:15:22.168Z,99.90
2022-08-23T04:17:48.946Z,99.90
2022-08-23T04:20:15.954Z,99.90
2022-08-23T04:22:42.628Z,99.90
2022-08-23T04:25:34.846Z,99.90
2022-08-23T04:27:59.605Z,99.90
2022-08-23T04:30:27.170Z,99.90
2022-08-23T04:32:53.870Z,99.90
2022-08-23T04:35:22.600Z,99.90
2022-08-23T04:37:49.327Z,99.90
2022-08-23T04:40:34.521Z,99.90
2022-08-23T04:43:01.351Z,99.90
2022-08-23T04:45:28.807Z,99.90
2022-08-23T04:47:55.654Z,99.90
2022-08-23T04:50:22.426Z,99.90
2022-08-23T04:52:49.161Z,99.90
2022-08-23T04:55:16.360Z,99.90
2022-08-23T04:57:43.514Z,99.90
2022-08-23T05:00:12.810Z,99.90
2022-08-23T05:02:39.642Z,99.90
2022-08-23T05:05:08.139Z,99.90
2022-08-23T05:07:42.600Z,99.90
2022-08-23T05:10:14.444Z,99.90
2022-08-23T05:12:41.994Z,99.90
2022-08-23T05:15:09.661Z,99.90
2022-08-23T05:17:37.022Z,99.90
2022-08-23T05:20:08.261Z,99.90
2022-08-23T05:22:36.848Z,99.90
2022-08-23T05:25:04.049Z,99.90
2022-08-23T05:27:30.788Z,99.90
2022-08-23T05:29:57.476Z,99.90
2022-08-23T05:32:24.236Z,99.90
2022-08-23T05:34:50.897Z,99.90
2022-08-23T05:37:17.897Z,99.90
2022-08-23T05:39:44.606Z,99.90
2022-08-23T05:42:14.299Z,99.90
2022-08-23T05:44:41.069Z,99.90
2022-08-23T05:47:10.486Z,99.90
2022-08-23T05:49:38.921Z,99.90
2022-08-23T05:52:07.748Z,99.90
2022-08-23T05:54:34.824Z,99.90
2022-08-23T05:57:02.114Z,99.90
2022-08-23T05:59:28.875Z,99.90
2022-08-23T06:01:56.496Z,99.90
2022-08-23T06:04:23.543Z,99.90
2022-08-23T06:06:50.301Z,99.90
2022-08-23T06:09:18.395Z,99.90
2022-08-23T06:11:47.413Z,99.90
2022-08-23T06:14:14.499Z,99.90
2022-08-23T06:16:45.721Z,99.90
2022-08-23T06:19:14.150Z,99.90
2022-08-23T06:21:41.707Z,99.90
2022-08-23T06:24:08.892Z,99.90
2022-08-23T06:26:38.686Z,99.90
2022-08-23T06:29:09.128Z,99.90
2022-08-23T06:31:50.007Z,99.90
2022-08-23T06:34:32.253Z,99.90
2022-08-23T06:37:04.719Z,99.90
2022-08-23T06:39:37.229Z,99.90
2022-08-23T06:42:37.696Z,99.90
2022-08-23T06:45:00.072Z,99.90
2022-08-23T06:47:27.071Z,99.90
2022-08-23T06:49:57.759Z,99.90
2022-08-23T06:52:27.506Z,99.90
2022-08-23T06:54:54.418Z,99.90
2022-08-23T06:57:21.516Z,99.90
2022-08-23T06:59:51.169Z,99.90
2022-08-23T07:02:17.974Z,99.90
2022-08-23T07:04:44.814Z,99.90
2022-08-23T07:07:12.501Z,99.90
2022-08-23T07:09:40.645Z,99.90
2022-08-23T07:12:07.659Z,99.90
2022-08-23T07:14:34.868Z,99.90
2022-08-23T07:17:03.556Z,99.90
2022-08-23T07:19:34.282Z,99.90
2022-08-23T07:22:02.502Z,99.90
2022-08-23T07:24:33.308Z,99.90
2022-08-23T07:27:06.292Z,99.90
2022-08-23T07:29:34.916Z,99.90
2022-08-23T07:32:01.656Z,99.90
2022-08-23T07:34:28.673Z,99.90
2022-08-23T07:36:55.391Z,99.90
2022-08-23T07:39:23.332Z,99.90
2022-08-23T07:41:52.581Z,99.90
2022-08-23T07:44:19.965Z,99.90
2022-08-23T07:46:50.356Z,99.90
2022-08-23T07:49:17.522Z,99.90
2022-08-23T07:51:48.014Z,99.90
2022-08-23T07:54:15.566Z,99.90
2022-08-23T07:56:42.384Z,99.90
2022-08-23T07:59:10.732Z,99.90
2022-08-23T08:01:38.495Z,99.90
2022-08-23T08:04:06.291Z,99.90
2022-08-23T08:06:43.936Z,99.90
2022-08-23T08:09:12.668Z,99.90
2022-08-23T08:11:43.052Z,99.90
2022-08-23T08:14:11.883Z,99.90
2022-08-23T08:16:45.742Z,99.90
2022-08-23T08:19:15.298Z,99.90
2022-08-23T08:21:42.886Z,99.90
2022-08-23T08:24:12.924Z,99.90
2022-08-23T08:26:41.655Z,99.90
2022-08-23T08:29:11.878Z,99.90
2022-08-23T08:31:40.206Z,99.90
2022-08-23T08:34:08.130Z,99.90
2022-08-23T08:36:44.910Z,99.90
2022-08-23T08:39:14.930Z,99.50
2022-08-23T08:42:04.511Z,98.90
2022-08-23T08:44:42.418Z,97.30
2022-08-23T08:47:45.893Z,96.20
2022-08-23T08:50:26.718Z,94.50
2022-08-23T08:53:11.861Z,93.00
2022-08-23T08:55:45.361Z,92.20
2022-08-23T08:58:23.982Z,91.40
2022-08-23T09:00:56.479Z,92.20
2022-08-23T09:03:24.243Z,91.20
2022-08-23T09:06:14.194Z,91.20
2022-08-23T09:08:48.503Z,90.10
2022-08-23T09:11:45.522Z,89.20
2022-08-23T09:14:21.306Z,89.20
2022-08-23T09:16:47.940Z,87.70
2022-08-23T09:19:14.913Z,87.30
2022-08-23T09:21:59.479Z,88.20
2022-08-23T09:24:26.632Z,87.10
2022-08-23T09:26:53.886Z,84.20
2022-08-23T09:29:25.969Z,84.00
2022-08-23T09:31:55.835Z,83.10
2022-08-23T09:34:39.777Z,83.60
2022-08-23T09:37:20.625Z,82.10
2022-08-23T09:40:14.392Z,81.60
2022-08-23T09:42:42.053Z,79.50
2022-08-23T09:45:35.658Z,76.90
2022-08-23T09:48:03.815Z,75.30
2022-08-23T09:50:33.930Z,75.10
2022-08-23T09:53:10.689Z,75.70
2022-08-23T09:55:42.079Z,74.90
2022-08-23T09:58:20.380Z,76.00
2022-08-23T10:01:11.359Z,74.20
2022-08-23T10:03:39.161Z,70.20
2022-08-23T10:06:08.394Z,70.50
2022-08-23T10:08:42.831Z,71.00
2022-08-23T10:11:16.173Z,68.70
2022-08-23T10:13:44.634Z,69.90
2022-08-23T10:16:45.170Z,68.10
2022-08-23T10:19:27.376Z,67.20
2022-08-23T10:22:15.712Z,68.30
2022-08-23T10:25:02.593Z,64.90
2022-08-23T10:28:04.994Z,65.50
2022-08-23T10:30:45.570Z,64.80
2022-08-23T10:33:39.954Z,64.80
2022-08-23T10:36:10.279Z,63.90
2022-08-23T10:38:49.718Z,62.20
2022-08-23T10:41:28.721Z,63.10
2022-08-23T10:44:40.578Z,62.10
2022-08-23T10:47:15.817Z,61.20
2022-08-23T10:49:43.247Z,62.10
2022-08-23T10:52:17.242Z,59.70
2022-08-23T10:54:59.463Z,60.50
2022-08-23T10:57:47.828Z,61.50
2022-08-23T11:00:22.632Z,58.80
2022-08-23T11:03:09.415Z,59.00
2022-08-23T11:05:38.727Z,58.60
2022-08-23T11:08:10.970Z,59.50
2022-08-23T11:10:56.833Z,59.60
2022-08-23T11:13:26.602Z,59.60
2022-08-23T11:16:07.838Z,59.10
2022-08-23T11:18:39.583Z,56.50
2022-08-23T11:21:17.928Z,57.30
2022-08-23T11:23:52.031Z,58.70
2022-08-23T11:26:28.356Z,56.80
2022-08-23T11:29:06.983Z,55.50
2022-08-23T11:31:56.517Z,55.00
2022-08-23T11:34:47.024Z,56.70
2022-08-23T11:37:19.897Z,56.70
2022-08-23T11:39:58.741Z,56.90
2022-08-23T11:42:43.940Z,55.80
2022-08-23T11:45:35.699Z,55.30
2022-08-23T11:48:22.645Z,54.50
2022-08-23T11:50:57.716Z,54.00
2022-08-23T11:53:54.328Z,52.90
2022-08-23T11:56:51.190Z,53.80
2022-08-23T11:59:38.451Z,54.60
2022-08-23T12:02:49.811Z,53.50
2022-08-23T12:05:20.347Z,53.60
2022-08-23T12:08:05.507Z,52.00
2022-08-23T12:10:40.957Z,52.30
2022-08-23T12:13:19.610Z,53.30
2022-08-23T12:16:04.605Z,53.90
2022-08-23T12:18:34.216Z,53.00
2022-08-23T12:21:04.050Z,51.60
2022-08-23T12:23:42.580Z,51.50
2022-08-23T12:26:38.359Z,50.50
2022-08-23T12:29:12.403Z,51.60
2022-08-23T12:32:09.956Z,50.00
2022-08-23T12:35:13.307Z,49.50
2022-08-23T12:37:50.212Z,50.70
2022-08-23T12:40:33.929Z,49.50
2022-08-23T12:43:14.890Z,49.70
2022-08-23T12:46:00.805Z,48.90
2022-08-23T12:48:31.638Z,49.40
2022-08-23T12:51:02.129Z,50.10
2022-08-23T12:53:35.622Z,50.20
2022-08-23T12:56:11.301Z,50.00
2022-08-23T12:58:39.348Z,50.50
2022-08-23T13:01:16.844Z,49.00
2022-08-23T13:03:47.147Z,49.10
2022-08-23T13:06:19.359Z,48.50
2022-08-23T13:08:52.450Z,48.80
2022-08-23T13:11:22.385Z,48.50
2022-08-23T13:13:49.649Z,49.10
2022-08-23T13:16:41.745Z,48.10
2022-08-23T13:19:28.573Z,49.00
2022-08-23T13:22:19.571Z,49.20
2022-08-23T13:25:27.386Z,47.90
2022-08-23T13:27:59.526Z,47.20
2022-08-23T13:30:36.635Z,47.30
2022-08-23T13:33:09.131Z,48.10
2022-08-23T13:35:37.473Z,47.00
2022-08-23T13:38:06.939Z,47.60
2022-08-23T13:40:43.243Z,47.10
2022-08-23T13:43:14.031Z,46.60
2022-08-23T13:45:54.667Z,47.40
2022-08-23T13:49:02.962Z,47.90
2022-08-23T13:51:38.889Z,47.50
2022-08-23T13:54:08.368Z,47.70
2022-08-23T13:56:41.270Z,47.60
2022-08-23T13:59:32.015Z,46.60
2022-08-23T14:02:05.395Z,46.40
2022-08-23T14:04:32.288Z,46.40
2022-08-23T14:06:59.011Z,47.00
2022-08-23T14:09:25.873Z,47.40
2022-08-23T14:11:57.857Z,48.20
2022-08-23T14:14:25.835Z,48.70
2022-08-23T14:16:54.437Z,48.30
2022-08-23T14:22:07.882Z,47.30
2022-08-23T14:24:34.611Z,48.40
2022-08-23T14:27:01.776Z,47.90
2022-08-23T14:29:28.421Z,46.80
2022-08-23T14:31:56.786Z,46.30
2022-08-23T14:34:23.624Z,45.80
2022-08-23T14:39:38.366Z,46.70
2022-08-23T14:42:05.935Z,46.90
2022-08-23T14:44:35.992Z,46.60
2022-08-23T14:47:05.754Z,46.00
2022-08-23T14:49:33.534Z,45.70
2022-08-23T14:52:00.225Z,46.20
2022-08-23T14:54:27.084Z,46.20
2022-08-23T14:56:54.413Z,45.80
2022-08-23T14:59:21.758Z,46.30
2022-08-23T15:01:50.253Z,46.20
2022-08-23T15:04:20.436Z,45.90
2022-08-23T15:07:14.076Z,46.30
2022-08-23T15:09:34.413Z,46.30
2022-08-23T15:14:47.821Z,46.80
2022-08-23T15:17:14.491Z,47.00
2022-08-23T15:19:41.200Z,46.80
2022-08-23T15:22:18.617Z,47.30
2022-08-23T15:24:49.033Z,46.00
2022-08-23T15:27:15.838Z,46.10
2022-08-23T15:29:42.492Z,45.80
2022-08-23T15:32:10.153Z,47.00
2022-08-23T15:34:40.214Z,47.00
2022-08-23T15:37:14.120Z,46.60
2022-08-23T15:39:42.119Z,46.70
2022-08-23T15:42:09.146Z,46.70
2022-08-23T15:44:35.815Z,46.80
2022-08-23T15:47:04.706Z,46.10
2022-08-23T15:49:36.291Z,46.60
2022-08-23T15:52:04.572Z,46.60
2022-08-23T15:54:31.764Z,47.60
2022-08-23T15:56:58.545Z,46.40
2022-08-23T15:59:25.542Z,46.40
2022-08-23T16:01:52.439Z,45.40
2022-08-23T16:04:19.224Z,46.20
2022-08-23T16:06:45.941Z,47.20
2022-08-23T16:09:19.621Z,47.30
2022-08-23T16:11:46.314Z,47.60
2022-08-23T16:14:13.194Z,48.80
2022-08-23T16:16:41.234Z,46.70
2022-08-23T16:19:09.242Z,46.70
2022-08-23T16:21:36.032Z,46.60
2022-08-23T16:24:03.162Z,46.90
2022-08-23T16:26:35.583Z,47.20
2022-08-23T16:29:07.929Z,47.30
2022-08-23T16:31:38.710Z,47.70
2022-08-23T16:34:08.035Z,49.20
2022-08-23T16:36:34.815Z,48.80
2022-08-23T16:39:01.501Z,48.00
2022-08-23T16:41:28.238Z,48.00
2022-08-23T16:43:54.881Z,47.60
2022-08-23T16:46:23.400Z,47.30
2022-08-23T16:48:50.607Z,47.60
2022-08-23T16:51:17.908Z,48.30
2022-08-23T16:53:44.556Z,49.70
2022-08-23T16:56:22.354Z,48.30
2022-08-23T16:58:49.286Z,49.30
2022-08-23T17:01:19.699Z,48.40
2022-08-23T17:03:47.071Z,48.50
2022-08-23T17:06:14.140Z,48.70
2022-08-23T17:08:40.929Z,50.10
2022-08-23T17:11:12.734Z,50.60
2022-08-23T17:13:40.360Z,50.50
2022-08-23T17:16:08.158Z,49.90
2022-08-23T17:18:34.837Z,49.80
2022-08-23T17:21:02.369Z,52.80
2022-08-23T17:23:29.158Z,52.50
2022-08-23T17:25:55.830Z,50.60
2022-08-23T17:28:23.190Z,50.80
2022-08-23T17:30:50.142Z,51.70
2022-08-23T17:33:16.797Z,51.20
2022-08-23T17:35:43.553Z,52.20
2022-08-23T17:38:10.209Z,53.20
2022-08-23T17:40:40.086Z,53.00
2022-08-23T17:43:08.137Z,53.20
2022-08-23T17:45:44.427Z,53.80
2022-08-23T17:48:12.249Z,55.70
2022-08-23T17:50:39.458Z,56.50
2022-08-23T17:53:06.908Z,54.90
2022-08-23T17:55:35.696Z,54.60
2022-08-23T17:58:04.921Z,55.30
2022-08-23T18:00:36.337Z,55.70
2022-08-23T18:03:03.965Z,56.40
2022-08-23T18:05:33.192Z,57.90
2022-08-23T18:08:00.622Z,58.40
2022-08-23T18:10:29.777Z,59.20
2022-08-23T18:12:57.231Z,59.80
2022-08-23T18:15:24.376Z,60.50
2022-08-23T18:17:51.760Z,60.70
2022-08-23T18:20:23.372Z,61.10
2022-08-23T18:22:50.117Z,61.90
2022-08-23T18:25:17.056Z,62.50
2022-08-23T18:28:02.946Z,62.90
2022-08-23T18:30:29.643Z,63.30
2022-08-23T18:32:57.540Z,64.30
2022-08-23T18:35:29.278Z,65.20
2022-08-23T18:37:56.567Z,65.40
2022-08-23T18:40:24.042Z,66.30
2022-08-23T18:42:50.910Z,67.00
2022-08-23T18:45:17.621Z,65.90
2022-08-23T18:47:46.037Z,67.20
2022-08-23T18:50:14.414Z,67.10
2022-08-23T18:52:41.101Z,68.90
2022-08-23T18:55:08.250Z,70.30
2022-08-23T18:57:34.930Z,70.50
2022-08-23T19:00:01.739Z,70.90
2022-08-23T19:02:28.797Z,70.70
2022-08-23T19:04:55.907Z,72.20
2022-08-23T19:07:22.603Z,73.00
2022-08-23T19:09:49.571Z,74.00
2022-08-23T19:12:16.276Z,73.30
2022-08-23T19:14:42.940Z,73.80
2022-08-23T19:17:09.608Z,73.00
2022-08-23T19:19:36.252Z,73.60
2022-08-23T19:22:03.695Z,73.70
2022-08-23T19:24:30.799Z,74.30
2022-08-23T19:26:57.649Z,75.00
2022-08-23T19:29:24.335Z,75.10
2022-08-23T19:31:51.096Z,76.30
2022-08-23T19:34:20.250Z,77.80
2022-08-23T19:36:51.169Z,77.80
2022-08-23T19:39:28.024Z,77.10
2022-08-23T19:41:55.173Z,76.10
2022-08-23T19:44:22.634Z,77.30
2022-08-23T19:46:49.443Z,77.40
2022-08-23T19:49:16.546Z,77.40
2022-08-23T19:51:44.293Z,77.80
2022-08-23T19:54:12.738Z,78.30
2022-08-23T19:56:44.616Z,78.70
2022-08-23T19:59:15.122Z,80.00
2022-08-23T20:01:42.367Z,80.50
2022-08-23T20:04:09.126Z,81.00
2022-08-23T20:06:35.840Z,81.80
2022-08-23T20:09:03.320Z,82.40
2022-08-23T20:11:32.017Z,82.60
2022-08-23T20:14:00.165Z,82.90
2022-08-23T20:16:27.288Z,82.30
2022-08-23T20:18:55.285Z,83.10
2022-08-23T20:21:23.843Z,82.00
2022-08-23T20:24:04.320Z,81.40
2022-08-23T20:26:40.676Z,81.20
2022-08-23T20:29:10.520Z,81.00
2022-08-23T20:31:45.928Z,79.60
2022-08-23T20:34:12.758Z,80.70
2022-08-23T20:36:39.453Z,80.20
2022-08-23T20:39:06.455Z,81.10
2022-08-23T20:41:35.999Z,82.30
2022-08-23T20:44:04.390Z,83.40
2022-08-23T20:46:31.518Z,83.80
2022-08-23T20:48:58.510Z,84.90
2022-08-23T20:51:27.428Z,85.90
2022-08-23T20:53:54.746Z,86.70
2022-08-23T20:56:23.389Z,86.90
2022-08-23T20:58:50.892Z,87.50
2022-08-23T21:01:18.163Z,87.60
2022-08-23T21:03:45.514Z,88.40
2022-08-23T21:06:16.498Z,87.90
2022-08-23T21:08:49.638Z,88.00
2022-08-23T21:11:17.730Z,88.10
2022-08-23T21:13:45.279Z,88.10
2022-08-23T21:16:13.470Z,86.50
2022-08-23T21:18:40.641Z,85.10
2022-08-23T21:21:08.133Z,83.60
2022-08-23T21:23:35.410Z,82.80
2022-08-23T21:26:02.912Z,81.70
2022-08-23T21:28:29.744Z,81.10
2022-08-23T21:31:05.686Z,81.00
2022-08-23T21:33:34.642Z,81.00
2022-08-23T21:36:04.912Z,80.40
2022-08-23T21:38:32.066Z,79.40
2022-08-23T21:41:00.962Z,79.50
2022-08-23T21:43:29.458Z,79.10
2022-08-23T21:45:57.017Z,79.60
2022-08-23T21:48:24.497Z,80.00
2022-08-23T21:50:52.064Z,79.40
2022-08-23T21:53:19.641Z,79.50
2022-08-23T21:55:46.688Z,79.90
2022-08-23T21:58:13.576Z,80.80
2022-08-23T22:00:41.487Z,81.90
2022-08-23T22:03:09.054Z,82.60
2022-08-23T22:05:43.518Z,84.60
2022-08-23T22:08:14.259Z,84.90
2022-08-23T22:10:52.261Z,85.40
2022-08-23T22:13:28.543Z,86.10
2022-08-23T22:15:55.375Z,88.00
2022-08-23T22:18:22.131Z,88.70
2022-08-23T22:20:48.957Z,88.80
2022-08-23T22:23:15.613Z,89.70
2022-08-23T22:25:42.305Z,90.00
2022-08-23T22:28:09.105Z,90.70
2022-08-23T22:30:35.804Z,91.40
2022-08-23T22:33:03.271Z,91.90
2022-08-23T22:35:34.228Z,92.10
2022-08-23T22:38:13.814Z,92.00
2022-08-23T22:40:48.282Z,92.40
2022-08-23T22:43:15.506Z,92.70
2022-08-23T22:46:01.995Z,93.30
2022-08-23T22:48:31.886Z,93.40
2022-08-23T22:51:10.413Z,94.20
2022-08-23T22:53:39.306Z,95.10
2022-08-23T22:56:06.942Z,95.80
2022-08-23T22:58:34.002Z,95.90
2022-08-23T23:01:03.731Z,96.10
2022-08-23T23:03:34.195Z,96.40
2022-08-23T23:06:01.741Z,96.90
2022-08-23T23:08:28.456Z,97.30
2022-08-23T23:11:01.638Z,98.60
2022-08-23T23:13:29.911Z,99.30
2022-08-23T23:15:56.984Z,98.80
2022-08-23T23:18:25.681Z,98.60
2022-08-23T23:20:52.988Z,99.50
2022-08-23T23:23:22.337Z,99.40
2022-08-23T23:25:49.940Z,99.00
2022-08-23T23:28:18.366Z,99.20
2022-08-23T23:30:47.097Z,99.60
2022-08-23T23:33:14.564Z,99.90
2022-08-23T23:35:41.853Z,99.90
2022-08-23T23:38:10.086Z,99.90
2022-08-23T23:40:37.552Z,99.90
2022-08-23T23:43:05.250Z,99.90
2022-08-23T23:45:32.302Z,99.90
2022-08-23T23:47:59.488Z,99.90
2022-08-23T23:50:26.934Z,99.90
2022-08-23T23:52:53.622Z,99.90
2022-08-23T23:55:23.465Z,99.90
2022-08-23T23:57:50.977Z,99.90
